createdAt,value
2017-03-04T00:00:22.026Z,0
2017-03-04T00:01:02.555Z,0
2017-03-04T00:01:43.006Z,0
2017-03-04T00:02:23.523Z,0
2017-03-04T00:03:04.028Z,0
2017-03-04T00:03:44.509Z,0
2017-03-04T00:04:25.004Z,0
2017-03-04T00:05:05.543Z,0
2017-03-04T00:05:46.022Z,0
2017-03-04T00:06:26.583Z,0
2017-03-04T00:07:07.027Z,0
2017-03-04T00:07:47.549Z,0
2017-03-04T00:08:28.014Z,0
2017-03-04T00:09:08.492Z,0
2017-03-04T00:09:49.014Z,0
2017-03-04T00:10:29.523Z,0
2017-03-04T00:11:10.057Z,0
2017-03-04T00:11:50.641Z,0
2017-03-04T00:12:31.140Z,0
2017-03-04T00:13:11.695Z,0
2017-03-04T00:13:52.134Z,0
2017-03-04T00:14:32.623Z,0
2017-03-04T00:15:13.100Z,0
2017-03-04T00:15:53.577Z,0
2017-03-04T00:16:34.135Z,0
2017-03-04T00:17:14.575Z,0
2017-03-04T00:17:55.054Z,0
2017-03-04T00:18:35.589Z,0
2017-03-04T00:19:16.137Z,0
2017-03-04T00:19:56.691Z,0
2017-03-04T00:20:37.156Z,0
2017-03-04T00:21:17.673Z,0
2017-03-04T00:21:58.156Z,0
2017-03-04T00:22:38.702Z,0
2017-03-04T00:23:19.163Z,0
2017-03-04T00:23:59.672Z,0
2017-03-04T00:24:40.155Z,0
2017-03-04T00:25:20.815Z,0
2017-03-04T00:26:02.125Z,0
2017-03-04T00:26:42.804Z,0
2017-03-04T00:27:23.358Z,0
2017-03-04T00:28:03.806Z,0
2017-03-04T00:28:44.348Z,0
2017-03-04T00:29:24.801Z,0
2017-03-04T00:30:05.353Z,0
2017-03-04T00:30:45.803Z,0
2017-03-04T00:31:26.294Z,0
2017-03-04T00:32:06.802Z,0
2017-03-04T00:32:47.287Z,0
2017-03-04T00:33:27.795Z,0
2017-03-04T00:34:08.332Z,0
2017-03-04T00:34:48.812Z,0
2017-03-04T00:35:29.257Z,0
2017-03-04T00:36:09.729Z,0
2017-03-04T00:36:50.252Z,0
2017-03-04T00:37:30.750Z,0
2017-03-04T00:38:11.228Z,0
2017-03-04T00:38:51.750Z,0
2017-03-04T00:39:32.228Z,0
2017-03-04T00:40:12.694Z,0
2017-03-04T00:40:53.201Z,0
2017-03-04T00:41:33.698Z,0
2017-03-04T00:42:14.219Z,0
2017-03-04T00:42:54.694Z,0
2017-03-04T00:43:35.202Z,0
2017-03-04T00:44:15.708Z,0
2017-03-04T00:44:56.199Z,0
2017-03-04T00:45:36.690Z,0
2017-03-04T00:46:17.198Z,0
2017-03-04T00:46:57.690Z,0
2017-03-04T00:47:38.181Z,0
2017-03-04T00:48:18.665Z,0
2017-03-04T00:48:59.258Z,0
2017-03-04T00:49:39.803Z,0
2017-03-04T00:50:20.298Z,0
2017-03-04T00:51:00.790Z,0
2017-03-04T00:51:41.268Z,0
2017-03-04T00:52:21.806Z,0
2017-03-04T00:53:02.414Z,0
2017-03-04T00:53:42.769Z,0
2017-03-04T00:54:23.283Z,0
2017-03-04T00:55:03.779Z,0
2017-03-04T00:55:44.302Z,0
2017-03-04T00:56:24.784Z,0
2017-03-04T00:57:05.237Z,0
2017-03-04T00:57:45.739Z,0
2017-03-04T00:58:26.307Z,0
2017-03-04T00:59:06.789Z,0
2017-03-04T00:59:47.301Z,0
2017-03-04T01:00:27.760Z,0
2017-03-04T01:01:08.290Z,0
2017-03-04T01:01:48.804Z,0
2017-03-04T01:02:29.328Z,0
2017-03-04T01:03:10.000Z,0
2017-03-04T01:03:50.491Z,0
2017-03-04T01:04:31.012Z,0
2017-03-04T01:05:11.476Z,0
2017-03-04T01:05:51.967Z,0
2017-03-04T01:06:32.469Z,0
2017-03-04T01:07:12.966Z,0
2017-03-04T01:07:53.439Z,0
2017-03-04T01:08:34.018Z,0
2017-03-04T01:09:14.552Z,0
2017-03-04T01:09:55.072Z,0
2017-03-04T01:10:35.581Z,0
2017-03-04T01:11:16.070Z,0
2017-03-04T01:11:56.599Z,0
2017-03-04T01:12:37.072Z,0
2017-03-04T01:13:17.529Z,0
2017-03-04T01:13:58.046Z,0
2017-03-04T01:14:38.571Z,0
2017-03-04T01:15:19.077Z,0
2017-03-04T01:15:59.584Z,0
2017-03-04T01:16:40.073Z,0
2017-03-04T01:17:20.629Z,0
2017-03-04T01:18:01.074Z,0
2017-03-04T01:18:41.539Z,0
2017-03-04T01:19:22.049Z,0
2017-03-04T01:20:02.540Z,0
2017-03-04T01:20:43.037Z,0
2017-03-04T01:21:23.582Z,0
2017-03-04T01:22:04.026Z,0
2017-03-04T01:22:44.528Z,0
2017-03-04T01:23:25.075Z,0
2017-03-04T01:24:05.564Z,0
2017-03-04T01:24:46.099Z,0
2017-03-04T01:25:26.584Z,0
2017-03-04T01:26:07.077Z,0
2017-03-04T01:26:47.544Z,0
2017-03-04T01:27:28.080Z,0
2017-03-04T01:28:08.571Z,0
2017-03-04T01:28:49.080Z,0
2017-03-04T01:29:29.648Z,0
2017-03-04T01:30:10.089Z,0
2017-03-04T01:30:50.598Z,0
2017-03-04T01:31:31.103Z,0
2017-03-04T01:32:11.745Z,0
2017-03-04T01:32:52.248Z,0
2017-03-04T01:33:32.737Z,0
2017-03-04T01:34:13.279Z,0
2017-03-04T01:34:53.731Z,0
2017-03-04T01:35:34.224Z,0
2017-03-04T01:36:14.728Z,0
2017-03-04T01:36:55.183Z,0
2017-03-04T01:37:35.730Z,0
2017-03-04T01:38:16.168Z,0
2017-03-04T01:38:56.660Z,0
2017-03-04T01:39:37.161Z,0
2017-03-04T01:40:17.633Z,0
2017-03-04T01:40:58.105Z,0
2017-03-04T01:41:38.614Z,0
2017-03-04T01:42:19.126Z,0
2017-03-04T01:42:59.655Z,0
2017-03-04T01:43:40.148Z,0
2017-03-04T01:44:20.659Z,0
2017-03-04T01:45:01.128Z,0
2017-03-04T01:45:41.655Z,0
2017-03-04T01:46:22.134Z,0
2017-03-04T01:47:02.632Z,0
2017-03-04T01:47:43.085Z,0
2017-03-04T01:48:23.603Z,0
2017-03-04T01:49:04.064Z,0
2017-03-04T01:49:44.583Z,0
2017-03-04T01:50:25.071Z,0
2017-03-04T01:51:05.588Z,0
2017-03-04T01:51:46.114Z,0
2017-03-04T01:52:26.571Z,0
2017-03-04T01:53:07.275Z,0
2017-03-04T01:53:47.906Z,0
2017-03-04T01:54:28.422Z,0
2017-03-04T01:55:08.926Z,0
2017-03-04T01:55:49.436Z,0
2017-03-04T01:56:29.869Z,0
2017-03-04T01:57:10.369Z,0
2017-03-04T01:57:50.925Z,0
2017-03-04T01:58:31.430Z,0
2017-03-04T01:59:11.953Z,0
2017-03-04T01:59:52.451Z,0
2017-03-04T02:00:33.004Z,0
2017-03-04T02:01:13.484Z,0
2017-03-04T02:01:53.957Z,0
2017-03-04T02:02:34.439Z,0
2017-03-04T02:03:14.955Z,0
2017-03-04T02:03:55.438Z,0
2017-03-04T02:04:35.905Z,0
2017-03-04T02:05:16.449Z,0
2017-03-04T02:05:56.882Z,0
2017-03-04T02:06:37.425Z,0
2017-03-04T02:07:17.928Z,0
2017-03-04T02:07:58.429Z,0
2017-03-04T02:08:38.931Z,0
2017-03-04T02:09:19.417Z,0
2017-03-04T02:09:59.949Z,0
2017-03-04T02:10:40.416Z,0
2017-03-04T02:11:20.890Z,0
2017-03-04T02:12:01.482Z,0
2017-03-04T02:12:42.073Z,0
2017-03-04T02:13:22.545Z,0
2017-03-04T02:14:03.111Z,0
2017-03-04T02:14:43.633Z,0
2017-03-04T02:15:24.119Z,0
2017-03-04T02:16:04.660Z,0
2017-03-04T02:16:45.127Z,0
2017-03-04T02:17:25.679Z,0
2017-03-04T02:18:06.166Z,0
2017-03-04T02:18:46.664Z,0
2017-03-04T02:19:27.155Z,0
2017-03-04T02:20:07.631Z,0
2017-03-04T02:20:48.106Z,0
2017-03-04T02:21:28.690Z,0
2017-03-04T02:22:09.142Z,0
2017-03-04T02:22:49.720Z,0
2017-03-04T02:23:30.215Z,0
2017-03-04T02:24:10.630Z,0
2017-03-04T02:24:51.150Z,0
2017-03-04T02:25:31.667Z,0
2017-03-04T02:26:12.165Z,0
2017-03-04T02:26:52.689Z,0
2017-03-04T02:27:33.181Z,0
2017-03-04T02:28:13.701Z,0
2017-03-04T02:28:54.147Z,0
2017-03-04T02:29:34.635Z,0
2017-03-04T02:30:15.178Z,0
2017-03-04T02:30:55.696Z,0
2017-03-04T02:31:36.195Z,0
2017-03-04T02:32:16.761Z,0
2017-03-04T02:32:57.248Z,0
2017-03-04T02:33:37.742Z,0
2017-03-04T02:34:18.177Z,0
2017-03-04T02:34:58.731Z,0
2017-03-04T02:35:39.164Z,0
2017-03-04T02:36:19.677Z,0
2017-03-04T02:37:00.143Z,0
2017-03-04T02:37:40.632Z,0
2017-03-04T02:38:21.177Z,0
2017-03-04T02:39:01.698Z,0
2017-03-04T02:39:42.138Z,0
2017-03-04T02:40:22.639Z,0
2017-03-04T02:41:03.132Z,0
2017-03-04T02:41:43.607Z,0
2017-03-04T02:42:24.113Z,0
2017-03-04T02:43:04.711Z,0
2017-03-04T02:43:45.171Z,0
2017-03-04T02:44:25.619Z,0
2017-03-04T02:45:06.153Z,0
2017-03-04T02:45:46.627Z,0
2017-03-04T02:46:27.133Z,0
2017-03-04T02:47:07.643Z,0
2017-03-04T02:47:48.186Z,0
2017-03-04T02:48:28.626Z,0
2017-03-04T02:49:09.177Z,0
2017-03-04T02:49:49.623Z,0
2017-03-04T02:50:30.134Z,0
2017-03-04T02:51:10.603Z,0
2017-03-04T02:51:51.135Z,0
2017-03-04T02:52:31.594Z,0
2017-03-04T02:53:12.137Z,0
2017-03-04T02:53:52.581Z,0
2017-03-04T02:54:33.213Z,0
2017-03-04T02:55:13.733Z,0
2017-03-04T02:55:54.200Z,0
2017-03-04T02:56:34.709Z,0
2017-03-04T02:57:15.160Z,0
2017-03-04T02:57:55.691Z,0
2017-03-04T02:58:36.177Z,0
2017-03-04T02:59:16.684Z,0
2017-03-04T02:59:57.150Z,0
2017-03-04T03:00:37.645Z,0
2017-03-04T03:01:18.195Z,0
2017-03-04T03:01:58.600Z,0
2017-03-04T03:02:39.119Z,0
2017-03-04T03:03:19.603Z,0
2017-03-04T03:04:00.120Z,0
2017-03-04T03:04:40.619Z,0
2017-03-04T03:05:21.129Z,0
2017-03-04T03:06:01.604Z,0
2017-03-04T03:06:42.146Z,0
2017-03-04T03:07:22.624Z,0
2017-03-04T03:08:03.185Z,0
2017-03-04T03:08:43.667Z,0
2017-03-04T03:09:24.185Z,0
2017-03-04T03:10:04.642Z,0
2017-03-04T03:10:45.139Z,0
2017-03-04T03:11:25.659Z,0
2017-03-04T03:12:06.157Z,0
2017-03-04T03:12:46.709Z,0
2017-03-04T03:13:27.151Z,0
2017-03-04T03:14:07.675Z,0
2017-03-04T03:14:48.154Z,0
2017-03-04T03:15:28.743Z,0
2017-03-04T03:16:09.207Z,0
2017-03-04T03:16:49.710Z,0
2017-03-04T03:17:30.205Z,0
2017-03-04T03:18:10.712Z,0
2017-03-04T03:18:51.221Z,0
2017-03-04T03:19:31.746Z,0
2017-03-04T03:20:12.302Z,0
2017-03-04T03:20:52.803Z,0
2017-03-04T03:21:33.292Z,0
2017-03-04T03:22:13.807Z,0
2017-03-04T03:22:54.288Z,0
2017-03-04T03:23:34.772Z,0
2017-03-04T03:24:15.268Z,0
2017-03-04T03:24:55.764Z,0
2017-03-04T03:25:36.294Z,0
2017-03-04T03:26:16.788Z,0
2017-03-04T03:26:57.353Z,0
2017-03-04T03:27:38.029Z,0
2017-03-04T03:30:07.352Z,0
2017-03-04T03:30:47.626Z,0
2017-03-04T03:31:28.215Z,0
2017-03-04T03:32:08.704Z,0
2017-03-04T03:32:49.237Z,0
2017-03-04T03:33:29.728Z,0
2017-03-04T03:34:10.179Z,0
2017-03-04T03:34:50.704Z,0
2017-03-04T03:35:31.201Z,0
2017-03-04T03:36:11.662Z,0
2017-03-04T03:36:52.182Z,0
2017-03-04T03:37:32.754Z,0
2017-03-04T03:38:13.271Z,0
2017-03-04T03:38:53.755Z,0
2017-03-04T03:39:34.208Z,0
2017-03-04T03:40:14.740Z,0
2017-03-04T03:40:55.274Z,0
2017-03-04T03:41:35.768Z,0
2017-03-04T03:42:16.221Z,0
2017-03-04T03:42:56.747Z,0
2017-03-04T03:43:37.356Z,0
2017-03-04T03:44:17.839Z,0
2017-03-04T03:44:58.347Z,0
2017-03-04T03:45:38.826Z,0
2017-03-04T03:46:19.300Z,0
2017-03-04T03:46:59.825Z,0
2017-03-04T03:47:40.395Z,0
2017-03-04T03:48:20.837Z,0
2017-03-04T03:49:01.350Z,0
2017-03-04T03:49:41.867Z,0
2017-03-04T03:50:22.377Z,0
2017-03-04T03:51:02.836Z,0
2017-03-04T03:51:43.313Z,0
2017-03-04T03:52:23.819Z,0
2017-03-04T03:53:04.300Z,0
2017-03-04T03:53:44.853Z,0
2017-03-04T03:54:25.302Z,0
2017-03-04T03:55:05.850Z,0
2017-03-04T03:55:46.414Z,0
2017-03-04T03:56:26.893Z,0
2017-03-04T03:57:07.329Z,0
2017-03-04T03:57:47.811Z,0
2017-03-04T03:58:28.392Z,0
2017-03-04T03:59:08.894Z,0
2017-03-04T03:59:49.340Z,0
2017-03-04T04:00:29.912Z,0
2017-03-04T04:01:10.442Z,0
2017-03-04T04:01:50.896Z,0
2017-03-04T04:02:31.402Z,0
2017-03-04T04:03:11.841Z,0
2017-03-04T04:03:52.294Z,0
2017-03-04T04:04:32.835Z,0
2017-03-04T04:05:13.299Z,0
2017-03-04T04:05:53.796Z,0
2017-03-04T04:06:34.280Z,0
2017-03-04T04:07:14.778Z,0
2017-03-04T04:07:55.254Z,0
2017-03-04T04:08:35.784Z,0
2017-03-04T04:09:16.254Z,0
2017-03-04T04:09:56.750Z,0
2017-03-04T04:10:37.253Z,0
2017-03-04T04:11:17.715Z,0
2017-03-04T04:11:58.261Z,0
2017-03-04T04:12:38.779Z,0
2017-03-04T04:13:19.327Z,0
2017-03-04T04:13:59.707Z,0
2017-03-04T04:14:40.232Z,0
2017-03-04T04:15:20.703Z,0
2017-03-04T04:16:01.237Z,0
2017-03-04T04:16:41.723Z,0
2017-03-04T04:17:22.244Z,0
2017-03-04T04:18:02.733Z,0
2017-03-04T04:18:43.199Z,0
2017-03-04T04:19:23.696Z,0
2017-03-04T04:20:04.200Z,0
2017-03-04T04:20:44.651Z,0
2017-03-04T04:21:25.134Z,0
2017-03-04T04:22:05.610Z,0
2017-03-04T04:22:46.056Z,0
2017-03-04T04:23:26.581Z,0
2017-03-04T04:24:07.054Z,0
2017-03-04T04:24:47.532Z,0
2017-03-04T04:25:28.062Z,0
2017-03-04T04:26:08.523Z,0
2017-03-04T04:26:49.053Z,0
2017-03-04T04:27:29.507Z,0
2017-03-04T04:28:10.039Z,0
2017-03-04T04:28:50.522Z,0
2017-03-04T04:29:31.022Z,0
2017-03-04T04:30:11.531Z,0
2017-03-04T04:30:52.016Z,0
2017-03-04T04:31:32.497Z,0
2017-03-04T04:32:12.952Z,0
2017-03-04T04:32:53.475Z,0
2017-03-04T04:33:33.962Z,0
2017-03-04T04:34:14.478Z,0
2017-03-04T04:34:54.931Z,0
2017-03-04T04:35:35.422Z,0
2017-03-04T04:36:15.934Z,0
2017-03-04T04:36:56.393Z,0
2017-03-04T04:37:36.917Z,0
2017-03-04T04:38:17.440Z,0
2017-03-04T04:38:58.009Z,0
2017-03-04T04:39:38.471Z,0
2017-03-04T04:40:19.033Z,0
2017-03-04T04:40:59.568Z,0
2017-03-04T04:41:40.042Z,0
2017-03-04T04:42:20.505Z,0
2017-03-04T04:43:01.052Z,0
2017-03-04T04:43:41.488Z,0
2017-03-04T04:44:21.975Z,0
2017-03-04T04:45:02.452Z,0
2017-03-04T04:45:43.054Z,0
2017-03-04T04:46:23.576Z,0
2017-03-04T04:47:04.093Z,0
2017-03-04T04:47:44.623Z,0
2017-03-04T04:48:25.120Z,0
2017-03-04T04:49:05.820Z,0
2017-03-04T04:49:46.266Z,0
2017-03-04T04:50:26.765Z,0
2017-03-04T04:51:07.287Z,0
2017-03-04T04:51:47.769Z,0
2017-03-04T04:52:28.292Z,0
2017-03-04T04:53:08.797Z,0
2017-03-04T04:53:49.261Z,0
2017-03-04T04:54:29.716Z,0
2017-03-04T04:55:10.262Z,0
2017-03-04T04:55:50.774Z,0
2017-03-04T04:56:31.256Z,0
2017-03-04T04:57:11.721Z,0
2017-03-04T04:57:52.206Z,0
2017-03-04T04:58:32.691Z,0
2017-03-04T04:59:13.156Z,0
2017-03-04T04:59:53.632Z,0
2017-03-04T05:00:34.156Z,0
2017-03-04T05:01:14.651Z,0
2017-03-04T05:01:55.116Z,0
2017-03-04T05:02:35.593Z,0
2017-03-04T05:03:16.081Z,0
2017-03-04T05:03:56.652Z,0
2017-03-04T05:04:37.057Z,0
2017-03-04T05:05:17.583Z,0
2017-03-04T05:05:58.047Z,0
2017-03-04T05:06:38.548Z,0
2017-03-04T05:07:19.046Z,0
2017-03-04T05:07:59.560Z,0
2017-03-04T05:08:40.006Z,0
2017-03-04T05:09:20.526Z,0
2017-03-04T05:10:01.039Z,0
2017-03-04T05:10:41.529Z,0
2017-03-04T05:11:22.013Z,0
2017-03-04T05:12:02.545Z,0
2017-03-04T05:12:43.004Z,0
2017-03-04T05:13:23.530Z,0
2017-03-04T05:14:04.024Z,0
2017-03-04T05:14:44.457Z,0
2017-03-04T05:15:24.947Z,0
2017-03-04T05:16:05.441Z,0
2017-03-04T05:16:45.926Z,0
2017-03-04T05:17:26.450Z,0
2017-03-04T05:18:06.929Z,0
2017-03-04T05:18:47.412Z,0
2017-03-04T05:19:27.896Z,0
2017-03-04T05:20:08.398Z,0
2017-03-04T05:20:48.872Z,0
2017-03-04T05:21:29.342Z,0
2017-03-04T05:22:09.875Z,0
2017-03-04T05:22:50.418Z,0
2017-03-04T05:23:30.920Z,0
2017-03-04T05:24:11.479Z,0
2017-03-04T05:24:51.931Z,0
2017-03-04T05:25:32.365Z,0
2017-03-04T05:26:12.928Z,0
2017-03-04T05:26:53.406Z,0
2017-03-04T05:27:33.916Z,0
2017-03-04T05:28:14.403Z,0
2017-03-04T05:28:54.898Z,0
2017-03-04T05:29:35.379Z,0
2017-03-04T05:30:15.829Z,0
2017-03-04T05:30:56.286Z,0
2017-03-04T05:31:36.804Z,0
2017-03-04T05:32:17.329Z,0
2017-03-04T05:32:57.832Z,0
2017-03-04T05:33:38.338Z,0
2017-03-04T05:34:18.801Z,0
2017-03-04T05:34:59.275Z,4
2017-03-04T05:35:39.764Z,4
2017-03-04T05:36:20.240Z,4
2017-03-04T05:37:00.891Z,4
2017-03-04T05:37:41.323Z,0
2017-03-04T05:38:21.764Z,4
2017-03-04T05:39:02.292Z,4
2017-03-04T05:39:42.776Z,8
2017-03-04T05:40:23.293Z,4
2017-03-04T05:41:03.767Z,8
2017-03-04T05:41:44.243Z,4
2017-03-04T05:42:24.795Z,8
2017-03-04T05:43:05.346Z,8
2017-03-04T05:43:45.962Z,8
2017-03-04T05:44:26.355Z,12
2017-03-04T05:45:06.883Z,16
2017-03-04T05:45:47.439Z,16
2017-03-04T05:46:27.892Z,16
2017-03-04T05:47:08.390Z,20
2017-03-04T05:47:48.859Z,20
2017-03-04T05:48:29.351Z,24
2017-03-04T05:49:09.819Z,28
2017-03-04T05:49:50.355Z,32
2017-03-04T05:50:30.854Z,36
2017-03-04T05:51:11.323Z,44
2017-03-04T05:51:51.798Z,48
2017-03-04T05:52:32.333Z,52
2017-03-04T05:53:12.792Z,56
2017-03-04T05:53:53.295Z,60
2017-03-04T05:54:33.816Z,64
2017-03-04T05:55:14.836Z,72
2017-03-04T05:55:55.299Z,80
2017-03-04T05:56:35.738Z,88
2017-03-04T05:57:16.305Z,100
2017-03-04T05:57:56.828Z,108
2017-03-04T05:58:37.354Z,116
2017-03-04T05:59:17.864Z,128
2017-03-04T05:59:58.346Z,132
2017-03-04T06:00:38.902Z,144
2017-03-04T06:01:19.737Z,152
2017-03-04T06:02:00.521Z,168
2017-03-04T06:02:41.066Z,176
2017-03-04T06:03:21.573Z,188
2017-03-04T06:04:02.036Z,204
2017-03-04T06:04:42.805Z,220
2017-03-04T06:05:23.548Z,236
2017-03-04T06:06:04.003Z,252
2017-03-04T06:06:44.485Z,272
2017-03-04T06:07:25.031Z,292
2017-03-04T06:08:05.525Z,308
2017-03-04T06:08:45.972Z,324
2017-03-04T06:09:26.467Z,348
2017-03-04T06:10:06.935Z,368
2017-03-04T06:10:47.411Z,388
2017-03-04T06:11:27.928Z,412
2017-03-04T06:12:08.454Z,432
2017-03-04T06:12:48.975Z,456
2017-03-04T06:13:29.922Z,480
2017-03-04T06:14:10.383Z,496
2017-03-04T06:14:51.072Z,520
2017-03-04T06:15:31.774Z,544
2017-03-04T06:16:12.488Z,568
2017-03-04T06:16:52.949Z,588
2017-03-04T06:17:33.489Z,616
2017-03-04T06:18:13.972Z,640
2017-03-04T06:18:54.474Z,664
2017-03-04T06:19:34.985Z,688
2017-03-04T06:20:15.549Z,712
2017-03-04T06:20:59.547Z,740
2017-03-04T06:21:40.183Z,764
2017-03-04T06:22:20.763Z,796
2017-03-04T06:23:01.447Z,832
2017-03-04T06:23:41.947Z,872
2017-03-04T06:24:22.572Z,908
2017-03-04T06:25:03.107Z,948
2017-03-04T06:25:43.581Z,984
2017-03-04T06:26:24.067Z,1020
2017-03-04T06:27:04.538Z,1060
2017-03-04T06:27:45.024Z,1104
2017-03-04T06:28:25.487Z,1156
2017-03-04T06:29:05.995Z,1204
2017-03-04T06:29:46.501Z,1240
2017-03-04T06:30:27.072Z,1280
2017-03-04T06:31:07.450Z,1320
2017-03-04T06:31:47.941Z,1356
2017-03-04T06:32:28.485Z,1388
2017-03-04T06:33:08.944Z,1432
2017-03-04T06:33:49.453Z,1456
2017-03-04T06:34:29.918Z,1484
2017-03-04T06:35:10.385Z,1500
2017-03-04T06:35:50.939Z,1532
2017-03-04T06:36:31.476Z,1560
2017-03-04T06:37:11.956Z,1592
2017-03-04T06:37:53.411Z,1624
2017-03-04T06:38:33.007Z,1652
2017-03-04T06:39:14.551Z,1688
2017-03-04T06:39:55.257Z,1716
2017-03-04T06:40:38.837Z,1740
2017-03-04T06:41:19.288Z,1772
2017-03-04T06:41:59.784Z,1808
2017-03-04T06:42:40.554Z,1840
2017-03-04T06:43:21.063Z,1868
2017-03-04T06:44:01.535Z,1896
2017-03-04T06:44:42.083Z,1924
2017-03-04T06:45:22.563Z,1948
2017-03-04T06:46:03.091Z,1976
2017-03-04T06:46:43.585Z,2000
2017-03-04T06:47:24.056Z,2028
2017-03-04T06:48:04.533Z,2068
2017-03-04T06:48:45.063Z,2112
2017-03-04T06:49:25.536Z,2208
2017-03-04T06:50:06.031Z,2360
2017-03-04T06:50:46.542Z,2628
2017-03-04T06:51:27.074Z,3012
2017-03-04T06:52:08.334Z,3456
2017-03-04T06:52:48.099Z,3856
2017-03-04T06:53:28.599Z,4104
2017-03-04T06:54:09.098Z,4264
2017-03-04T06:54:49.589Z,4336
2017-03-04T06:55:30.034Z,4400
2017-03-04T06:56:10.594Z,4456
2017-03-04T06:56:51.105Z,4500
2017-03-04T06:57:31.587Z,4448
2017-03-04T06:58:12.084Z,4392
2017-03-04T06:58:52.580Z,4676
2017-03-04T06:59:33.076Z,4664
2017-03-04T07:00:13.582Z,4804
2017-03-04T07:00:54.109Z,4824
2017-03-04T07:01:34.584Z,4548
2017-03-04T07:02:15.095Z,4312
2017-03-04T07:02:55.598Z,4388
2017-03-04T07:03:36.064Z,4384
2017-03-04T07:04:16.538Z,4272
2017-03-04T07:04:57.059Z,4024
2017-03-04T07:05:37.551Z,3904
2017-03-04T07:06:18.028Z,4028
2017-03-04T07:06:58.567Z,3952
2017-03-04T07:07:39.004Z,4024
2017-03-04T07:08:19.490Z,4100
2017-03-04T07:09:00.005Z,4220
2017-03-04T07:09:40.511Z,4296
2017-03-04T07:10:21.103Z,4292
2017-03-04T07:11:01.674Z,4296
2017-03-04T07:11:42.222Z,4288
2017-03-04T07:12:22.703Z,4276
2017-03-04T07:13:03.209Z,4384
2017-03-04T07:13:43.727Z,4376
2017-03-04T07:14:24.154Z,4340
2017-03-04T07:15:04.714Z,4332
2017-03-04T07:15:45.179Z,4296
2017-03-04T07:16:25.764Z,4184
2017-03-04T07:17:06.181Z,4052
2017-03-04T07:17:46.737Z,3996
2017-03-04T07:18:27.248Z,3836
2017-03-04T07:19:07.742Z,3868
2017-03-04T07:19:48.216Z,3864
2017-03-04T07:20:28.710Z,3884
2017-03-04T07:21:09.225Z,3856
2017-03-04T07:21:49.754Z,3720
2017-03-04T07:22:30.231Z,3700
2017-03-04T07:23:10.739Z,3768
2017-03-04T07:23:51.204Z,3652
2017-03-04T07:24:31.718Z,3552
2017-03-04T07:25:12.181Z,3500
2017-03-04T07:25:52.688Z,3432
2017-03-04T07:26:33.162Z,3380
2017-03-04T07:27:13.693Z,3332
2017-03-04T07:27:54.142Z,3308
2017-03-04T07:28:34.631Z,3228
2017-03-04T07:29:15.148Z,3176
2017-03-04T07:29:55.623Z,3124
2017-03-04T07:30:36.170Z,3092
2017-03-04T07:31:16.697Z,3060
2017-03-04T07:31:57.154Z,3020
2017-03-04T07:32:37.684Z,2984
2017-03-04T07:33:18.360Z,2968
2017-03-04T07:33:58.691Z,2956
2017-03-04T07:34:39.132Z,2952
2017-03-04T07:35:19.692Z,2968
2017-03-04T07:36:00.154Z,2968
2017-03-04T07:36:40.628Z,2968
2017-03-04T07:37:21.103Z,2948
2017-03-04T07:38:01.603Z,2944
2017-03-04T07:38:42.098Z,2928
2017-03-04T07:39:22.603Z,2956
2017-03-04T07:40:03.097Z,3012
2017-03-04T07:40:43.641Z,3056
2017-03-04T07:41:24.094Z,3100
2017-03-04T07:42:04.563Z,3144
2017-03-04T07:42:45.071Z,3176
2017-03-04T07:43:25.578Z,3176
2017-03-04T07:44:06.284Z,3072
2017-03-04T07:44:46.700Z,3024
2017-03-04T07:45:27.217Z,2928
2017-03-04T07:46:07.721Z,2916
2017-03-04T07:46:48.227Z,2920
2017-03-04T07:47:28.719Z,2900
2017-03-04T07:48:09.221Z,2872
2017-03-04T07:48:49.713Z,2872
2017-03-04T07:49:30.232Z,2728
2017-03-04T07:50:10.698Z,2804
2017-03-04T07:50:51.227Z,2820
2017-03-04T07:51:31.699Z,2848
2017-03-04T07:52:12.383Z,2832
2017-03-04T07:52:52.901Z,2844
2017-03-04T07:53:33.712Z,2832
2017-03-04T07:54:14.245Z,2832
2017-03-04T07:54:54.867Z,2860
2017-03-04T07:55:35.492Z,2852
2017-03-04T07:56:16.042Z,2932
2017-03-04T07:56:56.502Z,3004
2017-03-04T07:57:37.011Z,3060
2017-03-04T07:58:17.523Z,3096
2017-03-04T07:58:58.071Z,3124
2017-03-04T07:59:38.541Z,3164
2017-03-04T08:00:19.044Z,3164
2017-03-04T08:00:59.570Z,3168
2017-03-04T08:01:40.020Z,3144
2017-03-04T08:02:20.575Z,3184
2017-03-04T08:03:01.143Z,3196
2017-03-04T08:03:41.637Z,3200
2017-03-04T08:04:22.111Z,3192
2017-03-04T08:05:02.607Z,3232
2017-03-04T08:05:43.843Z,3248
2017-03-04T08:06:23.608Z,3240
2017-03-04T08:07:04.044Z,3244
2017-03-04T08:07:44.620Z,3308
2017-03-04T08:08:25.175Z,3316
2017-03-04T08:09:05.865Z,3308
2017-03-04T08:09:46.385Z,3300
2017-03-04T08:10:26.853Z,3272
2017-03-04T08:11:07.370Z,3276
2017-03-04T08:11:47.948Z,3204
2017-03-04T08:12:28.400Z,3020
2017-03-04T08:13:09.093Z,2992
2017-03-04T08:13:49.895Z,3084
2017-03-04T08:14:30.423Z,3188
2017-03-04T08:15:10.884Z,3312
2017-03-04T08:15:51.433Z,3384
2017-03-04T08:16:31.907Z,3436
2017-03-04T08:17:12.412Z,3520
2017-03-04T08:17:52.938Z,3556
2017-03-04T08:18:33.417Z,3672
2017-03-04T08:19:13.893Z,3784
2017-03-04T08:19:54.390Z,3900
2017-03-04T08:20:34.935Z,3992
2017-03-04T08:21:15.413Z,4080
2017-03-04T08:21:55.872Z,4252
2017-03-04T08:22:36.391Z,4388
2017-03-04T08:23:16.881Z,4492
2017-03-04T08:23:57.405Z,4512
2017-03-04T08:24:37.876Z,4516
2017-03-04T08:25:18.401Z,4524
2017-03-04T08:25:58.888Z,4504
2017-03-04T08:26:39.444Z,4548
2017-03-04T08:27:19.965Z,4572
2017-03-04T08:28:00.475Z,4676
2017-03-04T08:28:40.973Z,4816
2017-03-04T08:29:21.463Z,4900
2017-03-04T08:30:01.966Z,4860
2017-03-04T08:30:42.545Z,4816
2017-03-04T08:31:23.044Z,4708
2017-03-04T08:32:03.542Z,4576
2017-03-04T08:32:44.062Z,4488
2017-03-04T08:33:24.622Z,4460
2017-03-04T08:34:05.203Z,4480
2017-03-04T08:34:45.677Z,4540
2017-03-04T08:35:26.177Z,4548
2017-03-04T08:36:06.664Z,4592
2017-03-04T08:36:47.158Z,4632
2017-03-04T08:37:27.748Z,4700
2017-03-04T08:38:08.180Z,4848
2017-03-04T08:38:48.691Z,5036
2017-03-04T08:39:29.158Z,5224
2017-03-04T08:40:09.659Z,5420
2017-03-04T08:40:50.182Z,5632
2017-03-04T08:41:30.633Z,5836
2017-03-04T08:42:11.108Z,6024
2017-03-04T08:42:51.652Z,6168
2017-03-04T08:43:32.093Z,6268
2017-03-04T08:44:12.598Z,6376
2017-03-04T08:44:53.034Z,6532
2017-03-04T08:45:33.535Z,6708
2017-03-04T08:46:14.044Z,6824
2017-03-04T08:46:54.641Z,6884
2017-03-04T08:47:35.184Z,6912
2017-03-04T08:48:15.684Z,6920
2017-03-04T08:48:56.144Z,6928
2017-03-04T08:49:36.705Z,6968
2017-03-04T08:50:17.185Z,6992
2017-03-04T08:50:57.734Z,7072
2017-03-04T08:51:38.180Z,7152
2017-03-04T08:52:18.835Z,7228
2017-03-04T08:52:59.481Z,7328
2017-03-04T08:53:39.923Z,7404
2017-03-04T08:54:20.385Z,7528
2017-03-04T08:55:00.938Z,7644
2017-03-04T08:55:41.422Z,7692
2017-03-04T08:56:21.908Z,7712
2017-03-04T08:57:02.583Z,7696
2017-03-04T08:57:43.094Z,7688
2017-03-04T08:58:23.578Z,7676
2017-03-04T08:59:04.048Z,7648
2017-03-04T08:59:44.528Z,7616
2017-03-04T09:00:25.140Z,7596
2017-03-04T09:01:05.751Z,7592
2017-03-04T09:01:46.155Z,7576
2017-03-04T09:02:26.630Z,7532
2017-03-04T09:03:07.147Z,7468
2017-03-04T09:03:47.692Z,7396
2017-03-04T09:04:28.119Z,7336
2017-03-04T09:05:08.606Z,7304
2017-03-04T09:05:49.165Z,7276
2017-03-04T09:06:29.598Z,7248
2017-03-04T09:07:10.128Z,7208
2017-03-04T09:07:50.807Z,7156
2017-03-04T09:08:31.118Z,7116
2017-03-04T09:09:11.698Z,7096
2017-03-04T09:09:52.321Z,7100
2017-03-04T09:10:32.726Z,7132
2017-03-04T09:11:13.410Z,7160
2017-03-04T09:11:53.867Z,7172
2017-03-04T09:12:34.683Z,7104
2017-03-04T09:13:15.278Z,6948
2017-03-04T09:13:55.723Z,6692
2017-03-04T09:14:36.242Z,6404
2017-03-04T09:15:16.744Z,6108
2017-03-04T09:15:57.648Z,5820
2017-03-04T09:16:38.086Z,5540
2017-03-04T09:17:18.645Z,5296
2017-03-04T09:17:59.101Z,5100
2017-03-04T09:18:39.835Z,4968
2017-03-04T09:19:20.096Z,4884
2017-03-04T09:20:00.625Z,4824
2017-03-04T09:20:41.106Z,4752
2017-03-04T09:21:21.634Z,4672
2017-03-04T09:22:02.103Z,4600
2017-03-04T09:22:42.648Z,4556
2017-03-04T09:23:23.296Z,4544
2017-03-04T09:24:03.758Z,4552
2017-03-04T09:24:44.266Z,4608
2017-03-04T09:25:24.896Z,4692
2017-03-04T09:26:05.328Z,4776
2017-03-04T09:26:45.900Z,4904
2017-03-04T09:27:26.372Z,5092
2017-03-04T09:28:06.806Z,5248
2017-03-04T09:28:47.455Z,5464
2017-03-04T09:29:27.871Z,5648
2017-03-04T09:30:08.375Z,5780
2017-03-04T09:30:48.856Z,5884
2017-03-04T09:31:29.380Z,5932
2017-03-04T09:32:09.829Z,5936
2017-03-04T09:32:50.384Z,5908
2017-03-04T09:33:30.884Z,5868
2017-03-04T09:34:11.323Z,5860
2017-03-04T09:34:51.810Z,5792
2017-03-04T09:35:32.461Z,5712
2017-03-04T09:36:12.829Z,5620
2017-03-04T09:36:53.274Z,5540